Rogers, Arkansas
Current Conditions -  °F | °C
As of 8:57 AM on Wednesday 22 Oct 2014 (Local Time) from KROG Reporting Station
Few Clouds Few Clouds  
Wind Chill: 55°   Ceiling: Unl
Heat Index: 55°   Visibility: 10mi
Dew Point: 49°   Wind: 9mph
Humidity: 80%   Direction: 90°E
Pressure: 30.23"   Gusts: NA
Location:  36.33°N, 94.12°W
Report Text: KROG 221357Z 09008KT 10SM FEW050 13/09 A3023 RMK AO2 SLP233 T01280094
Loading
Personal Weather Stations






























Interactive Weather Map
Tropical Storm Tracking
New forecast layout! Learn more

10-Day Weather Forecast

Advertisements
Track Severe Weather on mobile